Time;durP1;ratioP1;P1;durP2;ratioP2;P2;SDS_P1;SDS_P2;PMS_P1;PMS_P2;Temp;Humidity;BMP_temperature;BMP_pressure;BME280_temperature;BME280_humidity;BME280_pressure;Samples;Min_cycle;Max_cycle;Signal;HPM_P1;HPM_P2
2021/06/08 00:00:21;;;;;;;9.83;7.63;;;18.50;99.90;;;;;;5071345;28;20480;-75
2021/06/08 00:02:48;;;;;;;9.27;7.73;;;18.50;99.90;;;;;;5055799;28;20301;-75
2021/06/08 00:05:14;;;;;;;10.00;7.50;;;18.50;99.90;;;;;;5089549;28;20448;-75
2021/06/08 00:07:40;;;;;;;10.03;7.17;;;18.40;99.90;;;;;;5088775;28;21021;-75
2021/06/08 00:10:06;;;;;;;7.97;6.57;;;18.40;99.90;;;;;;5052651;28;20453;-75
2021/06/08 00:12:32;;;;;;;7.93;7.10;;;18.40;99.90;;;;;;5058057;28;20298;-75
2021/06/08 00:14:58;;;;;;;8.23;6.90;;;18.40;99.90;;;;;;5054470;28;20886;-75
2021/06/08 00:17:23;;;;;;;8.20;7.00;;;18.40;99.90;;;;;;5065834;28;20214;-75
2021/06/08 00:19:49;;;;;;;7.53;6.77;;;18.40;99.90;;;;;;5072478;28;20225;-75
2021/06/08 00:22:15;;;;;;;8.70;7.80;;;18.40;99.90;;;;;;5072196;28;20220;-75
2021/06/08 00:24:41;;;;;;;8.93;6.90;;;18.40;99.90;;;;;;5069207;28;20215;-75
2021/06/08 00:27:07;;;;;;;9.80;7.57;;;18.30;99.90;;;;;;5055594;28;20246;-75
2021/06/08 00:29:33;;;;;;;6.90;6.20;;;18.30;99.90;;;;;;5071103;28;20222;-75
2021/06/08 00:31:59;;;;;;;8.17;6.73;;;18.30;99.90;;;;;;5088841;28;20456;-75
2021/06/08 00:34:25;;;;;;;8.23;7.43;;;18.30;99.90;;;;;;5071107;28;20481;-75
2021/06/08 00:36:50;;;;;;;9.00;8.10;;;18.30;99.90;;;;;;5072405;28;20294;-75
2021/06/08 00:39:16;;;;;;;9.57;8.23;;;18.30;99.90;;;;;;5050248;28;20586;-75
2021/06/08 00:41:43;;;;;;;9.60;7.40;;;18.30;99.90;;;;;;5043870;28;20687;-75
2021/06/08 00:44:13;;;;;;;6.97;6.27;;;18.30;99.90;;;;;;5052120;28;20645;-75
2021/06/08 00:46:40;;;;;;;8.80;7.50;;;18.30;99.90;;;;;;5051873;28;20503;-75
2021/06/08 00:49:05;;;;;;;7.57;6.77;;;18.30;99.90;;;;;;5070590;28;20449;-75
2021/06/08 00:51:31;;;;;;;7.80;6.87;;;18.40;99.90;;;;;;5071587;28;20457;-75
2021/06/08 00:53:59;;;;;;;9.30;7.67;;;18.40;99.90;;;;;;5088578;28;20222;-75
2021/06/08 00:56:25;;;;;;;8.63;7.60;;;18.40;99.90;;;;;;5055226;28;20251;-75
2021/06/08 00:58:50;;;;;;;9.57;6.93;;;18.40;99.90;;;;;;5071514;28;20855;-75
2021/06/08 01:01:16;;;;;;;9.20;7.33;;;18.40;99.90;;;;;;5071173;28;20218;-75
2021/06/08 01:03:42;;;;;;;10.40;7.97;;;18.40;99.90;;;;;;5073657;28;20210;-75
2021/06/08 01:06:08;;;;;;;9.43;7.60;;;18.40;99.90;;;;;;5075569;28;20582;-75
2021/06/08 01:08:33;;;;;;;9.70;7.57;;;18.40;99.90;;;;;;5092296;28;20222;-75
2021/06/08 01:10:59;;;;;;;8.63;7.80;;;18.30;99.90;;;;;;5055918;28;20230;-75
2021/06/08 01:13:37;;;;;;;9.43;7.80;;;18.30;99.90;;;;;;5054994;28;20246;-75
2021/06/08 01:16:03;;;;;;;8.87;7.97;;;18.30;99.90;;;;;;5072366;28;20219;-75
2021/06/08 01:18:28;;;;;;;8.60;6.97;;;18.30;99.90;;;;;;5038628;28;20461;-75
2021/06/08 01:21:08;;;;;;;7.90;6.93;;;18.30;99.90;;;;;;5055844;28;20223;-75
2021/06/08 01:23:35;;;;;;;7.03;6.43;;;18.30;99.90;;;;;;5071619;28;20226;-75
2021/06/08 01:26:01;;;;;;;9.67;8.67;;;18.30;99.90;;;;;;5039156;28;20454;-75
2021/06/08 01:28:29;;;;;;;9.77;7.50;;;18.30;99.90;;;;;;5062087;28;20456;-75
2021/06/08 01:30:56;;;;;;;8.13;6.80;;;18.30;99.90;;;;;;5091121;28;20866;-75
2021/06/08 01:33:24;;;;;;;8.73;7.60;;;18.30;99.90;;;;;;5074990;28;20544;-75
2021/06/08 01:35:52;;;;;;;8.97;8.07;;;18.30;99.90;;;;;;5075166;28;21202;-75
2021/06/08 01:38:19;;;;;;;9.70;8.57;;;18.30;99.90;;;;;;5071772;28;20465;-75
2021/06/08 02:58:01;;;;;;;10.30;8.37;;;18.00;99.90;;;;;;5085689;28;20471;-75
2021/06/08 03:00:27;;;;;;;7.57;6.80;;;18.00;99.90;;;;;;5070212;28;20456;-74
2021/06/08 03:02:56;;;;;;;8.03;7.23;;;18.00;99.90;;;;;;5067007;28;20449;-75
2021/06/08 03:05:24;;;;;;;11.40;9.57;;;18.00;99.90;;;;;;5071139;28;20502;-74
2021/06/08 03:07:55;;;;;;;8.97;8.07;;;18.00;99.90;;;;;;5066692;28;20457;-75
2021/06/08 03:10:22;;;;;;;8.70;7.40;;;18.00;99.90;;;;;;5088954;28;20527;-75
2021/06/08 03:12:56;;;;;;;11.00;8.20;;;18.00;99.90;;;;;;5068569;28;20453;-74
2021/06/08 03:15:35;;;;;;;8.53;7.67;;;18.00;99.90;;;;;;5070051;28;20533;-75
2021/06/08 03:18:02;;;;;;;11.20;8.47;;;18.00;99.90;;;;;;5069678;28;20472;-75
2021/06/08 03:20:36;;;;;;;9.13;7.50;;;18.00;99.90;;;;;;5086858;28;20873;-74
2021/06/08 03:23:06;;;;;;;9.23;7.60;;;18.00;99.90;;;;;;5068006;28;20464;-75
2021/06/08 03:25:34;;;;;;;10.73;7.97;;;18.00;99.90;;;;;;5070256;28;20488;-75
2021/06/08 03:28:00;;;;;;;8.93;7.90;;;18.00;99.90;;;;;;5051990;28;20989;-75
2021/06/08 03:30:27;;;;;;;9.70;8.70;;;18.00;99.90;;;;;;5087550;28;20444;-75
2021/06/08 03:32:54;;;;;;;10.70;8.87;;;18.00;99.90;;;;;;5067848;28;20514;-75
2021/06/08 03:35:22;;;;;;;9.37;7.97;;;17.90;99.90;;;;;;5063898;28;20457;-75
2021/06/08 03:37:48;;;;;;;13.00;8.83;;;18.00;99.90;;;;;;5049044;28;20572;-75
2021/06/08 03:40:16;;;;;;;12.07;8.17;;;17.90;99.90;;;;;;5066479;28;20529;-75
2021/06/08 03:42:43;;;;;;;8.90;8.00;;;17.90;99.90;;;;;;5053195;28;20448;-75
2021/06/08 03:45:18;;;;;;;8.80;7.90;;;17.90;99.90;;;;;;5063887;28;20457;-75
2021/06/08 03:47:47;;;;;;;10.80;8.80;;;17.90;99.90;;;;;;5066992;28;20984;-75
2021/06/08 03:50:15;;;;;;;11.30;8.30;;;17.90;99.90;;;;;;5085836;28;20535;-75
2021/06/08 03:56:44;;;;;;;8.80;7.30;;;17.90;99.90;;;;;;5082412;28;20463;-74
2021/06/08 03:59:27;;;;;;;9.33;8.00;;;17.90;99.90;;;;;;5052467;28;20460;-75
2021/06/08 04:01:53;;;;;;;10.23;8.20;;;17.90;99.90;;;;;;5068496;28;20448;-76
2021/06/08 04:04:20;;;;;;;9.80;8.80;;;17.90;99.90;;;;;;5086699;28;20460;-75
2021/06/08 04:06:46;;;;;;;10.17;8.37;;;17.90;99.90;;;;;;5086974;28;20448;-75
2021/06/08 04:09:13;;;;;;;9.77;8.60;;;17.90;99.90;;;;;;5050642;28;21499;-75
2021/06/08 04:11:41;;;;;;;11.43;9.53;;;17.90;99.90;;;;;;5085472;28;20452;-75
2021/06/08 04:14:09;;;;;;;12.00;8.83;;;17.90;99.90;;;;;;5081224;28;20474;-75
2021/06/08 04:16:35;;;;;;;12.00;9.40;;;17.80;99.90;;;;;;5069718;28;20465;-75
2021/06/08 04:19:01;;;;;;;10.70;8.60;;;17.80;99.90;;;;;;5064511;28;20464;-75
2021/06/08 04:21:28;;;;;;;9.30;8.30;;;17.80;99.90;;;;;;5083323;28;20211;-75
2021/06/08 04:24:06;;;;;;;11.70;9.20;;;17.80;99.90;;;;;;5056198;28;21065;-75
2021/06/08 04:26:33;;;;;;;11.60;9.93;;;17.80;99.90;;;;;;5066134;28;20461;-75
2021/06/08 04:28:59;;;;;;;9.70;8.40;;;17.80;99.90;;;;;;5066144;28;20457;-75
2021/06/08 04:31:26;;;;;;;11.10;9.40;;;17.80;99.90;;;;;;5068673;28;20926;-75
2021/06/08 04:33:52;;;;;;;11.33;9.70;;;17.80;99.90;;;;;;5097873;28;20234;-74
2021/06/08 04:36:19;;;;;;;11.83;9.53;;;17.80;99.90;;;;;;5066237;28;20453;-75
2021/06/08 04:38:45;;;;;;;11.57;8.90;;;17.80;99.90;;;;;;5087063;28;20743;-75
2021/06/08 04:41:12;;;;;;;12.57;9.27;;;17.80;99.90;;;;;;5088401;28;20547;-75
2021/06/08 04:43:38;;;;;;;11.37;8.07;;;17.70;99.90;;;;;;5068463;28;20461;-75
2021/06/08 04:46:05;;;;;;;11.57;8.73;;;17.80;99.90;;;;;;5052665;28;20456;-75
2021/06/08 04:48:32;;;;;;;10.00;8.83;;;17.80;99.90;;;;;;5086139;28;20218;-75
2021/06/08 04:50:59;;;;;;;10.00;8.63;;;17.80;99.90;;;;;;5069036;28;20498;-75
2021/06/08 04:53:25;;;;;;;10.97;8.50;;;17.80;99.90;;;;;;5073361;28;20989;-75
2021/06/08 04:55:53;;;;;;;11.70;10.17;;;17.80;99.90;;;;;;5072454;28;20873;-75
2021/06/08 04:58:19;;;;;;;8.93;8.00;;;17.80;99.90;;;;;;5070017;28;20472;-75
2021/06/08 05:01:20;;;;;;;10.00;8.47;;;17.80;99.90;;;;;;5072402;28;20468;-75
2021/06/08 05:03:50;;;;;;;8.70;7.50;;;17.80;99.90;;;;;;5080731;28;20463;-75
2021/06/08 05:06:22;;;;;;;8.53;7.73;;;17.80;99.90;;;;;;5060708;28;20473;-75
2021/06/08 05:08:52;;;;;;;10.00;8.33;;;17.90;99.90;;;;;;5096204;28;20464;-74
2021/06/08 05:11:22;;;;;;;10.10;8.43;;;17.90;99.90;;;;;;5066582;28;20547;-77
2021/06/08 05:13:51;;;;;;;9.30;7.90;;;17.90;99.90;;;;;;5054897;28;20519;-77
2021/06/08 05:16:20;;;;;;;9.70;7.63;;;17.90;99.90;;;;;;5062304;28;20452;-75
2021/06/08 05:18:51;;;;;;;9.00;8.00;;;17.90;99.90;;;;;;5072857;28;20452;-75
2021/06/08 05:21:19;;;;;;;9.23;7.67;;;17.90;99.90;;;;;;5089273;28;20982;-75
2021/06/08 05:23:51;;;;;;;10.67;8.03;;;17.90;99.90;;;;;;5088917;28;20509;-75
2021/06/08 05:26:17;;;;;;;10.77;9.47;;;17.90;99.90;;;;;;5088371;28;20513;-75
2021/06/08 05:28:43;;;;;;;9.20;8.00;;;17.90;99.90;;;;;;5069344;28;20452;-75
2021/06/08 05:31:09;;;;;;;8.73;7.77;;;17.90;99.90;;;;;;5064291;28;20453;-74
2021/06/08 05:33:35;;;;;;;8.03;7.23;;;17.90;99.90;;;;;;5089013;28;20297;-75
2021/06/08 05:36:01;;;;;;;8.60;7.63;;;18.00;99.90;;;;;;5085297;28;20535;-74
2021/06/08 05:38:39;;;;;;;10.50;8.43;;;18.00;99.90;;;;;;5087770;28;20218;-75
2021/06/08 05:41:07;;;;;;;9.00;8.10;;;18.00;99.90;;;;;;5086221;28;20460;-75
2021/06/08 05:43:33;;;;;;;9.20;8.20;;;18.00;99.90;;;;;;5066336;28;20541;-75
2021/06/08 05:45:59;;;;;;;11.53;9.10;;;18.00;99.90;;;;;;5067459;28;20548;-74
2021/06/08 05:48:26;;;;;;;12.17;9.00;;;18.00;99.90;;;;;;5054562;28;20301;-74
2021/06/08 05:51:00;;;;;;;9.27;8.27;;;18.00;99.90;;;;;;5084772;28;20226;-75
2021/06/08 05:53:26;;;;;;;9.50;8.27;;;18.00;99.90;;;;;;5067452;28;20500;-75
2021/06/08 05:55:54;;;;;;;10.30;9.13;;;18.10;99.90;;;;;;5084241;28;20464;-75
2021/06/08 05:58:30;;;;;;;10.50;7.80;;;18.10;99.90;;;;;;5087540;28;20456;-75
2021/06/08 06:00:58;;;;;;;9.67;8.40;;;18.10;99.90;;;;;;5069349;28;20456;-75
2021/06/08 06:03:24;;;;;;;10.00;8.53;;;18.10;99.90;;;;;;5067523;28;20475;-75
2021/06/08 06:05:52;;;;;;;9.67;8.67;;;18.10;99.90;;;;;;5066129;28;20473;-75
2021/06/08 06:08:18;;;;;;;11.17;9.50;;;18.10;99.90;;;;;;5050997;28;20449;-74
2021/06/08 06:10:45;;;;;;;9.67;8.60;;;18.10;99.90;;;;;;5074903;28;20495;-75
2021/06/08 06:13:19;;;;;;;9.20;8.10;;;18.10;99.90;;;;;;5052076;28;20461;-75
2021/06/08 06:15:46;;;;;;;9.60;7.30;;;18.10;99.90;;;;;;5087820;28;20565;-75
2021/06/08 06:18:13;;;;;;;9.13;7.90;;;18.10;99.90;;;;;;5090527;28;20509;-74
2021/06/08 06:20:40;;;;;;;9.70;8.10;;;18.10;99.90;;;;;;5054244;28;20862;-75
2021/06/08 06:23:06;;;;;;;7.67;6.97;;;18.20;99.90;;;;;;5049490;28;20462;-75
2021/06/08 06:25:32;;;;;;;10.50;8.40;;;18.20;99.90;;;;;;5069304;28;20492;-75
2021/06/08 06:27:57;;;;;;;9.73;8.70;;;18.20;99.90;;;;;;5068500;28;20484;-75
2021/06/08 06:30:24;;;;;;;11.40;9.30;;;18.20;99.90;;;;;;5053768;28;20254;-75
2021/06/08 06:32:51;;;;;;;14.00;9.47;;;18.20;99.90;;;;;;5089440;28;20241;-75
2021/06/08 06:35:17;;;;;;;14.43;9.37;;;18.20;99.90;;;;;;5066980;28;20560;-75
2021/06/08 06:37:43;;;;;;;8.63;7.70;;;18.30;99.90;;;;;;5083058;28;20465;-75
2021/06/08 06:40:16;;;;;;;10.97;9.30;;;18.30;99.90;;;;;;5050789;28;20536;-75
2021/06/08 06:42:45;;;;;;;9.00;8.17;;;18.30;99.90;;;;;;5037158;28;20472;-75
2021/06/08 06:45:16;;;;;;;10.57;8.33;;;18.30;99.90;;;;;;5068669;28;20922;-75
2021/06/08 06:47:43;;;;;;;11.57;9.53;;;18.40;99.90;;;;;;5100362;28;20468;-75
2021/06/08 06:50:11;;;;;;;9.97;8.97;;;18.40;99.90;;;;;;5082637;28;20499;-74
2021/06/08 06:52:40;;;;;;;11.70;10.50;;;18.40;99.90;;;;;;5081183;28;20563;-75
2021/06/08 06:55:10;;;;;;;11.70;9.97;;;18.40;99.90;;;;;;5080228;28;20483;-74
2021/06/08 06:57:37;;;;;;;12.53;9.50;;;18.40;99.90;;;;;;5087485;28;20472;-75
2021/06/08 07:00:06;;;;;;;11.30;9.30;;;18.50;99.90;;;;;;5100155;28;20489;-75
2021/06/08 07:02:33;;;;;;;11.13;10.00;;;18.50;99.90;;;;;;5075588;28;20545;-75
2021/06/08 07:05:00;;;;;;;10.17;8.97;;;18.50;99.90;;;;;;5062293;28;20491;-74
2021/06/08 07:07:27;;;;;;;14.30;8.93;;;18.50;99.90;;;;;;5076607;28;21043;-75
2021/06/08 07:09:53;;;;;;;10.80;8.33;;;18.50;99.90;;;;;;5063039;28;20472;-75
2021/06/08 07:12:21;;;;;;;21.50;8.97;;;18.60;99.90;;;;;;5064281;28;20464;-75
2021/06/08 07:14:48;;;;;;;9.50;7.90;;;18.60;99.90;;;;;;5062417;28;20488;-75
2021/06/08 07:17:14;;;;;;;11.77;9.57;;;18.60;99.90;;;;;;5077950;28;20464;-74
2021/06/08 07:19:41;;;;;;;10.23;9.17;;;18.60;99.90;;;;;;5082923;28;20495;-73
2021/06/08 07:22:08;;;;;;;13.00;9.57;;;18.70;99.90;;;;;;5072863;28;20486;-75
2021/06/08 07:24:34;;;;;;;10.77;9.03;;;18.70;99.90;;;;;;5082395;28;20555;-75
2021/06/08 07:27:00;;;;;;;11.40;9.13;;;18.70;99.90;;;;;;5082785;28;20916;-75
2021/06/08 07:29:26;;;;;;;10.90;9.60;;;18.70;99.90;;;;;;5066318;28;20456;-74
2021/06/08 07:32:04;;;;;;;11.17;10.00;;;18.70;99.90;;;;;;5081500;28;20461;-75
2021/06/08 07:34:49;;;;;;;10.70;9.10;;;18.80;99.90;;;;;;5067249;28;20472;-75
2021/06/08 07:37:19;;;;;;;13.53;8.70;;;18.80;99.90;;;;;;5067003;28;20874;-75
2021/06/08 07:39:51;;;;;;;9.67;8.70;;;18.80;99.90;;;;;;5066424;28;20465;-74
2021/06/08 07:42:22;;;;;;;14.53;10.07;;;18.90;99.90;;;;;;5080954;28;20455;-74
2021/06/08 07:44:57;;;;;;;10.67;9.07;;;18.90;99.90;;;;;;5060980;28;20468;-75
2021/06/08 07:47:26;;;;;;;10.40;8.90;;;18.90;99.90;;;;;;5083416;28;21079;-75
2021/06/08 07:49:55;;;;;;;12.30;9.27;;;18.90;99.90;;;;;;5065205;28;20941;-75
2021/06/08 07:52:23;;;;;;;9.93;8.70;;;18.90;99.90;;;;;;5083090;28;20476;-75
2021/06/08 07:54:50;;;;;;;13.33;9.47;;;19.00;99.90;;;;;;5063736;28;20527;-74
2021/06/08 07:57:18;;;;;;;11.10;9.60;;;19.00;99.90;;;;;;5081717;28;20960;-74
2021/06/08 07:59:44;;;;;;;11.27;8.90;;;19.00;99.90;;;;;;5080365;28;20463;-74
2021/06/08 08:02:11;;;;;;;16.50;9.23;;;19.10;99.90;;;;;;5048358;28;20531;-75
2021/06/08 08:04:46;;;;;;;13.63;9.73;;;19.10;99.90;;;;;;5101641;28;20453;-74
2021/06/08 08:07:13;;;;;;;10.40;9.10;;;19.10;99.90;;;;;;5065073;28;20979;-75
2021/06/08 08:09:39;;;;;;;17.53;9.33;;;19.20;99.90;;;;;;5067534;28;20824;-75
2021/06/08 08:12:05;;;;;;;14.40;8.70;;;19.20;99.90;;;;;;5048834;28;20543;-73
2021/06/08 08:14:32;;;;;;;13.07;9.00;;;19.20;99.90;;;;;;5063255;28;20250;-74
2021/06/08 08:17:00;;;;;;;12.20;10.00;;;19.30;99.90;;;;;;5064894;28;20949;-73
2021/06/08 08:19:25;;;;;;;12.40;9.50;;;19.30;99.90;;;;;;5085202;28;20456;-75
2021/06/08 08:21:51;;;;;;;11.93;10.63;;;19.30;99.90;;;;;;5081970;28;20837;-74
2021/06/08 08:24:18;;;;;;;12.17;10.77;;;19.30;99.90;;;;;;5068291;28;20702;-75
2021/06/08 08:26:44;;;;;;;10.13;9.07;;;19.40;99.90;;;;;;5066104;28;20284;-75
2021/06/08 08:29:10;;;;;;;10.80;9.43;;;19.40;99.90;;;;;;5096571;28;20448;-75
2021/06/08 08:31:37;;;;;;;9.93;8.93;;;19.40;99.90;;;;;;5064779;28;20456;-74
2021/06/08 08:34:04;;;;;;;12.03;10.67;;;19.40;99.90;;;;;;5080007;28;20226;-74
2021/06/08 08:36:33;;;;;;;10.47;9.37;;;19.40;99.90;;;;;;5065149;28;20480;-75
2021/06/08 08:39:00;;;;;;;9.17;8.27;;;19.50;99.90;;;;;;5081668;28;20464;-75
2021/06/08 08:41:27;;;;;;;12.10;9.70;;;19.50;99.90;;;;;;5066246;28;20501;-75
2021/06/08 08:43:53;;;;;;;11.60;9.37;;;19.50;99.90;;;;;;5062783;28;20456;-75
2021/06/08 08:46:20;;;;;;;10.83;9.70;;;19.60;99.90;;;;;;5048067;28;20975;-75
2021/06/08 08:48:47;;;;;;;11.90;10.60;;;19.60;99.90;;;;;;5082558;28;20448;-75
2021/06/08 08:51:16;;;;;;;11.87;10.40;;;19.60;99.90;;;;;;5084483;28;20882;-75
2021/06/08 08:53:45;;;;;;;9.47;8.47;;;19.70;99.90;;;;;;5083042;28;20456;-75
2021/06/08 08:56:14;;;;;;;12.07;10.10;;;19.70;99.90;;;;;;5064911;28;20468;-75
2021/06/08 08:58:40;;;;;;;12.10;9.57;;;19.70;99.90;;;;;;5084042;28;20498;-74
2021/06/08 09:01:07;;;;;;;12.33;8.50;;;19.80;99.90;;;;;;5080935;28;20457;-75
2021/06/08 09:03:33;;;;;;;9.10;7.90;;;19.80;99.90;;;;;;5061874;28;20838;-75
2021/06/08 09:06:00;;;;;;;9.80;8.70;;;19.90;99.90;;;;;;5048689;28;20548;-75
2021/06/08 09:08:26;;;;;;;11.93;10.70;;;19.90;99.90;;;;;;5047133;28;21015;-75
2021/06/08 09:10:54;;;;;;;10.57;9.47;;;19.90;99.90;;;;;;5074124;28;20449;-75
2021/06/08 09:13:21;;;;;;;13.50;10.10;;;19.90;99.90;;;;;;5080535;28;20819;-75
2021/06/08 09:15:47;;;;;;;11.13;9.67;;;20.00;99.90;;;;;;5066004;28;20464;-74
2021/06/08 09:18:13;;;;;;;12.37;9.20;;;20.00;99.90;;;;;;5064650;28;20592;-75
2021/06/08 09:20:39;;;;;;;10.70;9.67;;;20.10;99.90;;;;;;5032633;28;20477;-75
2021/06/08 09:23:07;;;;;;;11.80;10.60;;;20.10;99.90;;;;;;5073641;28;20468;-75
2021/06/08 09:25:44;;;;;;;10.97;9.60;;;20.10;99.90;;;;;;5086687;28;20905;-75
2021/06/08 09:28:22;;;;;;;10.00;9.00;;;20.10;99.90;;;;;;5067719;28;20488;-75
2021/06/08 09:30:50;;;;;;;16.00;11.83;;;20.20;99.90;;;;;;5054383;28;20464;-74
2021/06/08 09:33:20;;;;;;;13.27;8.97;;;20.20;99.90;;;;;;5085770;28;20464;-75
2021/06/08 09:35:54;;;;;;;9.07;8.20;;;20.20;99.90;;;;;;5069019;28;20486;-75
2021/06/08 09:38:21;;;;;;;12.57;10.83;;;20.20;99.90;;;;;;5068570;28;20829;-74
2021/06/08 09:40:47;;;;;;;10.00;8.80;;;20.20;99.90;;;;;;5085536;28;20540;-75
2021/06/08 09:43:15;;;;;;;11.97;9.57;;;20.30;99.90;;;;;;5085074;28;20837;-75
2021/06/08 09:45:46;;;;;;;9.27;8.33;;;20.30;99.90;;;;;;5072202;28;20530;-75
2021/06/08 09:48:13;;;;;;;10.70;9.67;;;20.30;99.90;;;;;;5064864;28;20456;-75
2021/06/08 09:50:43;;;;;;;11.97;10.80;;;20.40;99.90;;;;;;5043717;28;20453;-75
2021/06/08 09:53:18;;;;;;;12.07;10.87;;;20.40;99.90;;;;;;5059479;28;20492;-74
2021/06/08 09:56:02;;;;;;;12.63;10.57;;;20.40;99.90;;;;;;5077047;28;20472;-75
2021/06/08 09:58:29;;;;;;;10.77;9.67;;;20.40;99.90;;;;;;5079818;28;20482;-75
2021/06/08 10:01:09;;;;;;;15.33;11.10;;;20.50;99.90;;;;;;5079363;28;20468;-75
2021/06/08 10:03:40;;;;;;;10.70;9.60;;;20.60;99.90;;;;;;5054788;28;20480;-75
2021/06/08 10:06:13;;;;;;;10.80;9.70;;;20.60;99.90;;;;;;5086660;28;20481;-75
2021/06/08 10:08:50;;;;;;;11.23;9.20;;;20.70;99.90;;;;;;5072251;28;20539;-73
2021/06/08 10:11:24;;;;;;;10.47;9.47;;;20.70;99.90;;;;;;5092940;28;20476;-75
2021/06/08 10:13:57;;;;;;;13.00;9.77;;;20.80;99.90;;;;;;5070536;28;20476;-75
2021/06/08 10:16:26;;;;;;;9.90;8.93;;;20.80;99.90;;;;;;5064370;28;20452;-75
2021/06/08 10:18:52;;;;;;;9.53;8.70;;;20.80;99.90;;;;;;5058064;28;20477;-75
2021/06/08 10:21:38;;;;;;;10.83;9.00;;;20.90;99.90;;;;;;5075530;28;20456;-75
2021/06/08 10:24:07;;;;;;;11.40;9.97;;;21.00;99.90;;;;;;5075764;28;20297;-74
2021/06/08 10:26:36;;;;;;;11.80;8.80;;;21.00;99.90;;;;;;5048652;28;20987;-75
2021/06/08 10:29:05;;;;;;;10.83;9.33;;;21.00;99.90;;;;;;5060724;28;20469;-77
2021/06/08 10:31:32;;;;;;;13.03;9.30;;;21.00;99.90;;;;;;5048857;28;20491;-77
2021/06/08 10:33:59;;;;;;;11.50;9.83;;;21.10;99.90;;;;;;5056026;28;20883;-77
2021/06/08 10:36:25;;;;;;;14.17;9.63;;;21.20;99.90;;;;;;5040580;28;20474;-77
2021/06/08 10:38:51;;;;;;;11.10;10.03;;;21.20;99.90;;;;;;5078254;28;20487;-77
2021/06/08 10:41:17;;;;;;;10.33;9.33;;;21.20;99.90;;;;;;5059568;28;20449;-77
2021/06/08 10:43:43;;;;;;;9.83;8.87;;;21.20;99.90;;;;;;5043701;28;20702;-77
2021/06/08 10:46:28;;;;;;;10.67;9.67;;;21.30;99.90;;;;;;5038734;28;20690;-76
2021/06/08 10:48:55;;;;;;;10.57;9.57;;;21.40;99.90;;;;;;5071026;28;20225;-76
2021/06/08 10:51:22;;;;;;;10.97;9.97;;;21.50;99.90;;;;;;5074533;28;20948;-76
2021/06/08 10:53:51;;;;;;;8.90;8.10;;;21.50;99.90;;;;;;5057915;28;20469;-77
2021/06/08 10:56:25;;;;;;;15.07;9.20;;;21.50;99.90;;;;;;5066450;28;20460;-77
2021/06/08 10:58:57;;;;;;;10.70;9.60;;;21.60;99.90;;;;;;5065085;28;20467;-74
2021/06/08 11:01:37;;;;;;;10.70;9.80;;;21.70;99.90;;;;;;5082653;28;20448;-74
2021/06/08 11:04:23;;;;;;;10.07;9.07;;;21.80;99.90;;;;;;5081670;28;20457;-74
2021/06/08 11:07:00;;;;;;;10.13;9.13;;;21.80;99.90;;;;;;5061884;28;20458;-76
2021/06/08 11:09:27;;;;;;;9.77;8.80;;;21.80;99.90;;;;;;5044979;28;20440;-77
2021/06/08 11:12:04;;;;;;;10.60;9.60;;;21.80;99.90;;;;;;5074759;28;20445;-77
2021/06/08 11:14:33;;;;;;;10.57;9.60;;;21.80;99.90;;;;;;5076571;28;20465;-77
2021/06/08 11:17:02;;;;;;;9.77;8.87;;;21.80;99.90;;;;;;5056651;28;20517;-77
2021/06/08 11:19:56;;;;;;;10.00;9.00;;;21.90;99.90;;;;;;5075384;28;20450;-76
2021/06/08 11:22:54;;;;;;;10.27;9.27;;;22.00;99.90;;;;;;5057285;28;20520;-76
2021/06/08 11:25:51;;;;;;;10.97;9.83;;;22.10;99.90;;;;;;5066265;28;20495;-77
2021/06/08 11:28:18;;;;;;;9.77;8.97;;;22.20;99.90;;;;;;5054976;28;20457;-77
2021/06/08 11:31:00;;;;;;;9.97;9.00;;;22.20;99.90;;;;;;5074067;28;20465;-77
2021/06/08 11:33:46;;;;;;;9.77;8.87;;;22.30;99.90;;;;;;5061712;28;20819;-77
2021/06/08 11:36:18;;;;;;;12.90;11.60;;;22.40;99.90;;;;;;5044412;28;20459;-76
2021/06/08 11:38:43;;;;;;;11.93;10.63;;;22.50;99.90;;;;;;5062336;28;20453;-77
2021/06/08 11:41:10;;;;;;;11.40;10.30;;;22.50;99.90;;;;;;5046029;28;20455;-77
2021/06/08 11:43:36;;;;;;;12.07;10.83;;;22.50;99.90;;;;;;5064014;28;20219;-76
2021/06/08 11:46:13;;;;;;;10.67;9.70;;;22.60;99.90;;;;;;5080850;28;20516;-77
2021/06/08 11:48:47;;;;;;;10.73;9.73;;;22.60;99.90;;;;;;5079100;28;20803;-76
2021/06/08 11:51:16;;;;;;;10.53;9.53;;;22.70;99.90;;;;;;5042407;28;20448;-76
2021/06/08 11:54:08;;;;;;;12.30;10.70;;;22.80;99.90;;;;;;5054926;28;20457;-76
2021/06/08 11:57:02;;;;;;;12.60;10.50;;;22.90;99.90;;;;;;5072332;28;20992;-76
2021/06/08 11:59:55;;;;;;;10.20;9.30;;;23.00;99.90;;;;;;5070524;28;20444;-76
2021/06/08 12:02:41;;;;;;;10.37;9.37;;;23.10;99.90;;;;;;5080936;28;20464;-74
2021/06/08 12:05:11;;;;;;;11.33;10.20;;;23.20;99.90;;;;;;5074739;28;20464;-76
2021/06/08 12:08:05;;;;;;;10.53;9.50;;;23.30;99.90;;;;;;5064028;28;20495;-76
2021/06/08 12:10:42;;;;;;;9.97;9.03;;;23.40;99.90;;;;;;5075843;28;20948;-76
2021/06/08 12:13:09;;;;;;;10.27;9.20;;;23.50;99.90;;;;;;5075816;28;20850;-76
2021/06/08 12:15:38;;;;;;;10.70;9.70;;;23.70;99.90;;;;;;5065211;28;20484;-75
2021/06/08 12:18:05;;;;;;;10.93;9.90;;;23.70;99.90;;;;;;5063095;28;20547;-73
2021/06/08 12:20:33;;;;;;;12.17;10.97;;;23.80;99.90;;;;;;5083375;28;20832;-76
2021/06/08 12:23:00;;;;;;;10.60;9.60;;;23.90;99.90;;;;;;5073559;28;20460;-76
2021/06/08 12:25:27;;;;;;;10.47;9.47;;;23.90;99.90;;;;;;5065581;28;20478;-76
2021/06/08 12:27:52;;;;;;;10.30;9.30;;;24.00;99.90;;;;;;5064209;28;20472;-76
2021/06/08 12:30:27;;;;;;;11.23;10.13;;;24.10;99.90;;;;;;5062374;28;20964;-76
2021/06/08 12:32:58;;;;;;;10.27;9.27;;;24.10;99.90;;;;;;5078058;28;20214;-76
2021/06/08 12:35:31;;;;;;;11.53;10.43;;;24.10;99.90;;;;;;5081623;28;20464;-75
2021/06/08 12:38:21;;;;;;;11.17;10.07;;;24.10;99.90;;;;;;5080921;28;20478;-76
2021/06/08 12:41:03;;;;;;;10.87;9.97;;;24.10;99.90;;;;;;5063724;28;20452;-76
2021/06/08 12:43:40;;;;;;;11.20;10.17;;;24.20;99.90;;;;;;5079979;28;20463;-76
2021/06/08 12:46:06;;;;;;;10.47;9.33;;;24.20;99.90;;;;;;5076572;28;20459;-76
2021/06/08 12:48:32;;;;;;;11.57;10.37;;;24.30;99.90;;;;;;5065305;28;20522;-76
2021/06/08 12:50:58;;;;;;;11.40;10.30;;;24.40;99.90;;;;;;5041452;28;20222;-76
2021/06/08 12:53:26;;;;;;;11.53;10.33;;;24.40;99.90;;;;;;5083353;28;20832;-76
2021/06/08 12:55:54;;;;;;;13.23;11.97;;;24.50;99.90;;;;;;5084955;28;20226;-76
2021/06/08 12:58:20;;;;;;;10.53;9.50;;;24.50;99.90;;;;;;5084149;28;20512;-76
2021/06/08 13:00:49;;;;;;;11.43;10.33;;;24.40;99.90;;;;;;5071433;28;20464;-76
2021/06/08 13:03:15;;;;;;;11.23;10.13;;;24.40;99.90;;;;;;5083679;28;20459;-76
2021/06/08 13:05:41;;;;;;;10.83;9.83;;;24.50;99.90;;;;;;5087694;28;20463;-76
2021/06/08 13:08:08;;;;;;;14.07;11.10;;;24.70;99.90;;;;;;5064472;28;20448;-74
2021/06/08 13:10:38;;;;;;;12.00;10.80;;;24.90;99.90;;;;;;5054735;28;20469;-76
2021/06/08 13:13:15;;;;;;;10.73;9.40;;;24.90;99.90;;;;;;5086360;28;20975;-76
2021/06/08 13:15:44;;;;;;;11.83;10.63;;;24.90;99.90;;;;;;5070676;28;20722;-76
2021/06/08 13:18:15;;;;;;;12.43;10.83;;;24.90;99.90;;;;;;5049862;28;20506;-76
2021/06/08 13:20:44;;;;;;;11.30;10.20;;;24.90;99.90;;;;;;5054779;28;20485;-76
2021/06/08 13:23:30;;;;;;;9.50;8.60;;;24.80;99.90;;;;;;5068325;28;20467;-76
2021/06/08 13:26:04;;;;;;;10.67;8.50;;;24.80;99.90;;;;;;5065980;28;20586;-76
2021/06/08 13:28:31;;;;;;;9.80;9.00;;;24.90;99.90;;;;;;5082082;28;20820;-76
2021/06/08 13:31:13;;;;;;;10.40;9.40;;;24.80;99.90;;;;;;5076402;28;20463;-76
2021/06/08 13:33:41;;;;;;;10.30;9.40;;;24.80;99.90;;;;;;5082565;28;20458;-76
2021/06/08 13:36:09;;;;;;;9.10;8.30;;;24.90;99.90;;;;;;5047003;28;20866;-76
2021/06/08 13:38:36;;;;;;;10.57;9.67;;;25.00;99.90;;;;;;5066806;28;20831;-75
2021/06/08 13:41:02;;;;;;;9.90;9.00;;;25.00;99.90;;;;;;5088604;28;20456;-76
2021/06/08 13:43:39;;;;;;;10.87;9.87;;;24.90;99.90;;;;;;5067848;28;20456;-76
2021/06/08 13:46:14;;;;;;;10.00;9.00;;;24.90;99.90;;;;;;5084141;28;20470;-76
2021/06/08 13:48:48;;;;;;;10.70;9.73;;;24.90;99.90;;;;;;5068014;28;20864;-76
2021/06/08 13:51:23;;;;;;;10.17;9.27;;;24.90;99.90;;;;;;5076175;28;20871;-76
2021/06/08 13:54:07;;;;;;;10.23;9.43;;;25.00;99.90;;;;;;5050211;28;20505;-76
2021/06/08 13:57:01;;;;;;;9.70;8.57;;;25.00;99.90;;;;;;5064926;28;21011;-75
2021/06/08 14:02:08;;;;;;;10.47;9.57;;;25.20;99.90;;;;;;5082893;28;20483;-76
2021/06/08 14:04:45;;;;;;;9.63;8.83;;;25.20;99.90;;;;;;5084867;28;20444;-76
2021/06/08 14:07:12;;;;;;;10.50;9.60;;;25.20;99.90;;;;;;5081806;28;20451;-76
2021/06/08 14:09:48;;;;;;;10.43;9.13;;;25.30;99.90;;;;;;5087877;28;20463;-76
2021/06/08 14:12:15;;;;;;;9.63;8.83;;;25.30;99.90;;;;;;5069580;28;20487;-76
2021/06/08 14:14:41;;;;;;;10.40;9.40;;;25.20;99.90;;;;;;5068300;28;20479;-76